Time;durP1;ratioP1;P1;durP2;ratioP2;P2;SDS_P1;SDS_P2;PMS_P1;PMS_P2;Temp;Humidity;BMP_temperature;BMP_pressure;BME280_temperature;BME280_humidity;BME280_pressure;Samples;Min_cycle;Max_cycle;Signal;HPM_P1;HPM_P2
2022/03/15 00:00:44;;;;;;;10.88;7.18;;;9.00;79.00;;;;;;5093394;28;20032;-41
2022/03/15 00:03:09;;;;;;;15.85;8.00;;;9.00;78.30;;;;;;5093452;28;20542;-41
2022/03/15 00:05:35;;;;;;;14.77;7.25;;;9.00;78.20;;;;;;5093459;28;20027;-41
2022/03/15 00:08:01;;;;;;;13.55;7.53;;;9.00;78.20;;;;;;5093745;28;20032;-41
2022/03/15 00:10:27;;;;;;;15.07;7.65;;;9.00;78.20;;;;;;5093344;28;20027;-41
2022/03/15 00:12:56;;;;;;;11.88;7.80;;;8.90;78.30;;;;;;5093601;28;20387;-43
2022/03/15 00:15:22;;;;;;;12.68;7.38;;;8.90;78.30;;;;;;5093321;28;20013;-41
2022/03/15 00:17:48;;;;;;;16.20;7.53;;;8.90;78.30;;;;;;5093285;28;20491;-41
2022/03/15 00:20:18;;;;;;;15.57;7.80;;;8.90;78.40;;;;;;5093180;28;20031;-39
2022/03/15 00:22:44;;;;;;;14.50;7.82;;;8.90;78.50;;;;;;5075011;28;20024;-40
2022/03/15 00:25:11;;;;;;;14.98;8.00;;;8.90;78.50;;;;;;5093327;28;20020;-41
2022/03/15 00:27:37;;;;;;;12.90;7.88;;;8.90;78.50;;;;;;5093062;28;20039;-41
2022/03/15 00:30:05;;;;;;;15.50;8.18;;;8.90;78.50;;;;;;5093298;28;20103;-40
2022/03/15 00:32:32;;;;;;;13.77;7.93;;;8.90;78.50;;;;;;5093258;28;20024;-39
2022/03/15 00:34:57;;;;;;;13.02;8.05;;;8.80;78.50;;;;;;5093489;28;20016;-40
2022/03/15 00:37:23;;;;;;;15.30;8.35;;;8.80;78.60;;;;;;5092917;28;20032;-37
2022/03/15 00:39:50;;;;;;;15.40;7.90;;;8.80;78.60;;;;;;5092937;28;20024;-40
2022/03/15 00:42:16;;;;;;;14.05;8.35;;;8.80;78.70;;;;;;5093340;28;20452;-41
2022/03/15 00:44:42;;;;;;;15.43;8.65;;;8.80;78.70;;;;;;5074957;28;20130;-40
2022/03/15 00:47:08;;;;;;;16.20;8.85;;;8.80;78.80;;;;;;5092907;28;20016;-40
2022/03/15 00:49:35;;;;;;;14.00;8.30;;;8.70;78.70;;;;;;5093127;28;20512;-41
2022/03/15 00:52:01;;;;;;;16.08;8.88;;;8.70;78.70;;;;;;5093038;28;20065;-41
2022/03/15 00:54:27;;;;;;;14.00;7.68;;;8.70;78.80;;;;;;5096284;28;20450;-40
2022/03/15 00:56:53;;;;;;;13.95;7.82;;;8.70;78.80;;;;;;5097011;28;20407;-41
2022/03/15 00:59:19;;;;;;;14.80;8.60;;;8.70;78.90;;;;;;5097053;28;20050;-41
2022/03/15 01:01:46;;;;;;;14.23;8.32;;;8.70;78.80;;;;;;5096998;28;20024;-41
2022/03/15 01:04:12;;;;;;;15.52;8.60;;;8.70;78.90;;;;;;5096956;28;20036;-41
2022/03/15 01:06:38;;;;;;;13.45;8.30;;;8.70;78.90;;;;;;5096897;28;20024;-40
2022/03/15 01:09:04;;;;;;;15.77;8.65;;;8.70;78.80;;;;;;5078591;28;20021;-40
2022/03/15 01:11:30;;;;;;;16.38;8.75;;;8.80;78.80;;;;;;5096786;28;20020;-40
2022/03/15 01:13:56;;;;;;;14.38;8.70;;;8.80;78.80;;;;;;5078623;28;20081;-41
2022/03/15 01:16:21;;;;;;;16.75;9.20;;;8.80;78.80;;;;;;5096742;28;20087;-41
2022/03/15 01:18:47;;;;;;;17.90;9.25;;;8.80;78.80;;;;;;5096659;28;20027;-41
2022/03/15 01:21:16;;;;;;;15.02;8.88;;;8.80;78.80;;;;;;5096921;28;20028;-41
2022/03/15 01:23:42;;;;;;;14.07;7.88;;;8.80;78.80;;;;;;5096577;28;20439;-40
2022/03/15 01:26:07;;;;;;;18.05;8.52;;;8.80;78.80;;;;;;5096678;28;20052;-41
2022/03/15 01:28:33;;;;;;;21.00;9.10;;;8.80;78.80;;;;;;5096438;28;20016;-41
2022/03/15 01:30:59;;;;;;;17.20;8.80;;;8.80;78.80;;;;;;5096494;28;20032;-41
2022/03/15 01:33:25;;;;;;;13.65;9.05;;;8.80;78.90;;;;;;5096268;28;20028;-40
2022/03/15 01:35:50;;;;;;;15.05;9.07;;;8.80;78.90;;;;;;5096626;28;20017;-41
2022/03/15 01:38:16;;;;;;;12.88;9.13;;;8.70;78.90;;;;;;5096597;28;20023;-40
2022/03/15 01:40:42;;;;;;;14.75;9.13;;;8.70;78.90;;;;;;5096212;28;20085;-40
2022/03/15 01:43:08;;;;;;;16.13;9.50;;;8.70;78.90;;;;;;5078021;28;20051;-40
2022/03/15 01:45:36;;;;;;;18.23;9.63;;;8.70;78.90;;;;;;5096165;28;20069;-40
2022/03/15 01:48:03;;;;;;;17.75;9.27;;;8.80;78.90;;;;;;5096199;28;20024;-41
2022/03/15 01:50:29;;;;;;;17.33;9.57;;;8.70;78.90;;;;;;5095956;28;20404;-40
2022/03/15 01:52:55;;;;;;;15.77;9.30;;;8.80;78.90;;;;;;5096039;28;20012;-40
2022/03/15 01:55:21;;;;;;;17.30;9.38;;;8.80;78.90;;;;;;5096196;28;20036;-40
2022/03/15 01:57:47;;;;;;;14.70;9.15;;;8.80;78.90;;;;;;5096216;28;20031;-40
2022/03/15 02:00:15;;;;;;;16.27;9.77;;;8.80;78.80;;;;;;5095866;28;20024;-40
2022/03/15 02:02:40;;;;;;;18.05;10.00;;;8.80;78.80;;;;;;5096080;28;20024;-40
2022/03/15 02:05:06;;;;;;;16.85;9.80;;;8.80;78.80;;;;;;5077158;28;20365;-40
2022/03/15 02:07:32;;;;;;;19.58;10.07;;;8.90;78.80;;;;;;5077512;28;20094;-40
2022/03/15 02:09:57;;;;;;;17.88;10.88;;;8.80;78.70;;;;;;5095707;28;20388;-40
2022/03/15 02:12:23;;;;;;;18.33;9.50;;;8.90;78.80;;;;;;5095756;28;20119;-38
2022/03/15 02:14:49;;;;;;;16.92;10.20;;;8.80;78.80;;;;;;5095838;28;20029;-39
2022/03/15 02:17:14;;;;;;;18.70;9.95;;;8.80;78.80;;;;;;5095588;28;20111;-40
2022/03/15 02:19:43;;;;;;;15.77;9.57;;;8.80;78.80;;;;;;5095543;28;20082;-40
2022/03/15 02:22:08;;;;;;;15.98;10.43;;;8.80;78.80;;;;;;5095498;28;20028;-41
2022/03/15 02:24:34;;;;;;;16.75;10.20;;;8.80;78.80;;;;;;5095466;28;20077;-42
2022/03/15 02:27:01;;;;;;;18.65;11.27;;;8.80;78.90;;;;;;5095356;28;20032;-40
2022/03/15 02:29:27;;;;;;;23.27;11.60;;;8.90;79.00;;;;;;5095520;28;20413;-40
2022/03/15 02:31:53;;;;;;;20.15;11.50;;;8.90;78.90;;;;;;5095247;28;20020;-39
2022/03/15 02:34:18;;;;;;;20.42;11.50;;;8.90;78.90;;;;;;5095416;28;20519;-41
2022/03/15 02:36:44;;;;;;;22.40;12.45;;;8.90;78.80;;;;;;5095299;28;20024;-53
2022/03/15 02:39:10;;;;;;;18.73;11.85;;;8.90;78.90;;;;;;5095281;28;20482;-39
2022/03/15 02:41:35;;;;;;;18.25;12.15;;;8.90;78.90;;;;;;5095115;28;20084;-41
2022/03/15 02:44:01;;;;;;;17.50;12.18;;;8.90;78.90;;;;;;5077050;28;20028;-41
2022/03/15 02:46:29;;;;;;;18.65;11.52;;;8.90;78.90;;;;;;5095293;28;20035;-40
2022/03/15 02:48:55;;;;;;;19.15;12.50;;;8.90;78.90;;;;;;5094972;28;20016;-41
2022/03/15 02:51:21;;;;;;;18.42;12.45;;;9.00;79.00;;;;;;5094992;28;20024;-41
2022/03/15 02:53:47;;;;;;;18.85;12.30;;;8.90;78.90;;;;;;5076626;28;20384;-40
2022/03/15 02:56:13;;;;;;;21.50;12.07;;;8.90;78.90;;;;;;5094697;28;20044;-41
2022/03/15 02:58:39;;;;;;;21.08;12.35;;;8.90;79.00;;;;;;5094818;28;20024;-40
2022/03/15 03:01:06;;;;;;;19.27;12.52;;;9.00;79.00;;;;;;5094996;28;20020;-40
2022/03/15 03:03:32;;;;;;;18.48;11.60;;;8.90;79.00;;;;;;5094699;28;20027;-38
2022/03/15 03:05:58;;;;;;;17.58;11.98;;;8.90;79.00;;;;;;5094642;28;20028;-40
2022/03/15 03:08:25;;;;;;;18.75;13.25;;;8.90;79.00;;;;;;5094708;28;20050;-40
2022/03/15 03:10:52;;;;;;;16.98;11.68;;;8.90;79.00;;;;;;5094722;28;20032;-41
2022/03/15 03:13:18;;;;;;;21.48;12.70;;;8.90;79.00;;;;;;5094866;28;20074;-41
2022/03/15 03:15:44;;;;;;;17.85;11.95;;;8.90;78.90;;;;;;5093562;28;20407;-40
2022/03/15 03:18:10;;;;;;;21.13;12.45;;;8.90;79.00;;;;;;5094705;28;20016;-40
2022/03/15 03:20:35;;;;;;;18.80;12.10;;;8.90;78.90;;;;;;5076196;28;20032;-42
2022/03/15 03:23:01;;;;;;;18.35;12.55;;;8.90;78.90;;;;;;5094364;28;20016;-44
2022/03/15 03:25:30;;;;;;;19.80;12.32;;;8.90;79.00;;;;;;5094228;28;20097;-40
2022/03/15 03:27:57;;;;;;;22.30;13.65;;;8.90;79.00;;;;;;5094212;28;20023;-40
2022/03/15 03:30:23;;;;;;;23.33;13.13;;;8.90;79.00;;;;;;5094173;28;20031;-40
2022/03/15 03:32:49;;;;;;;22.48;13.38;;;8.90;79.00;;;;;;5094238;28;20411;-40
2022/03/15 03:35:14;;;;;;;21.33;13.20;;;8.90;79.00;;;;;;5094069;28;20028;-40
2022/03/15 03:37:40;;;;;;;20.38;13.02;;;8.90;79.00;;;;;;5094031;28;20028;-41
2022/03/15 03:40:07;;;;;;;25.17;12.82;;;8.90;79.00;;;;;;5075785;28;20024;-39
2022/03/15 03:42:36;;;;;;;21.60;13.20;;;8.90;79.00;;;;;;5094242;28;20020;-40
2022/03/15 03:45:04;;;;;;;17.95;13.00;;;8.80;79.10;;;;;;5094177;28;20024;-40
2022/03/15 03:47:29;;;;;;;18.52;12.27;;;8.90;79.20;;;;;;5093879;28;20380;-40
2022/03/15 03:49:55;;;;;;;20.63;13.43;;;8.80;79.10;;;;;;5093951;28;20027;-40
2022/03/15 03:52:20;;;;;;;21.48;13.32;;;8.80;79.10;;;;;;5093731;28;20085;-44
2022/03/15 03:54:46;;;;;;;24.55;13.05;;;8.80;79.20;;;;;;5093757;28;20111;-39
2022/03/15 03:57:12;;;;;;;19.13;13.45;;;8.80;79.20;;;;;;5093536;28;20048;-40
2022/03/15 03:59:38;;;;;;;19.77;12.77;;;8.80;79.20;;;;;;5093749;28;20097;-40
2022/03/15 04:02:04;;;;;;;19.90;13.35;;;8.80;79.20;;;;;;5093580;28;20020;-40
2022/03/15 04:04:29;;;;;;;19.27;12.68;;;8.80;79.50;;;;;;5093580;28;20111;-39
2022/03/15 04:06:55;;;;;;;18.95;12.70;;;8.80;79.80;;;;;;5093562;28;20536;-41
2022/03/15 04:09:23;;;;;;;18.67;13.10;;;8.80;79.10;;;;;;5075200;28;20172;-41
2022/03/15 04:11:49;;;;;;;20.05;13.00;;;8.80;79.10;;;;;;5093351;28;20028;-40
2022/03/15 04:14:15;;;;;;;18.25;13.65;;;8.80;79.20;;;;;;5093663;28;20069;-40
2022/03/15 04:16:42;;;;;;;17.80;11.98;;;8.80;79.10;;;;;;5093256;28;20534;-39
2022/03/15 04:19:08;;;;;;;18.08;12.23;;;8.80;79.10;;;;;;5093489;28;20495;-40
2022/03/15 04:21:34;;;;;;;18.85;12.43;;;8.80;79.10;;;;;;5093240;28;20028;-40
2022/03/15 04:24:00;;;;;;;17.17;11.25;;;8.80;79.10;;;;;;5093350;28;20024;-41
2022/03/15 04:26:53;;;;;;;18.33;11.63;;;8.80;79.10;;;;;;5093194;28;20024;-40
2022/03/15 04:29:20;;;;;;;18.50;11.95;;;8.80;79.00;;;;;;5093075;28;20016;-40
2022/03/15 04:31:46;;;;;;;15.98;11.45;;;8.80;78.90;;;;;;5093280;28;20024;-40
2022/03/15 04:34:11;;;;;;;19.38;11.07;;;8.80;79.00;;;;;;5093379;28;20027;-40
2022/03/15 04:36:37;;;;;;;18.80;12.30;;;8.80;79.00;;;;;;5093226;28;20507;-40
2022/03/15 04:39:04;;;;;;;19.00;10.93;;;8.80;78.90;;;;;;5093060;28;20111;-40
2022/03/15 04:41:29;;;;;;;17.92;12.05;;;8.80;79.00;;;;;;5093086;28;20099;-40
2022/03/15 04:43:55;;;;;;;17.67;11.35;;;8.70;78.90;;;;;;5092994;28;20435;-40
2022/03/15 04:46:22;;;;;;;18.38;11.52;;;8.80;78.90;;;;;;5092944;28;20024;-40
2022/03/15 04:48:48;;;;;;;15.15;10.93;;;8.80;78.90;;;;;;5093097;28;20239;-40
2022/03/15 04:51:14;;;;;;;16.88;10.98;;;8.80;78.90;;;;;;5093028;28;20091;-40
2022/03/15 04:53:39;;;;;;;17.20;10.88;;;8.80;78.90;;;;;;5092872;28;20028;-39
2022/03/15 04:56:05;;;;;;;17.65;10.85;;;8.80;78.80;;;;;;5092801;28;20036;-40
2022/03/15 04:58:31;;;;;;;16.17;10.30;;;8.80;78.80;;;;;;5092845;28;20019;-40
2022/03/15 05:00:57;;;;;;;17.30;10.70;;;8.80;78.80;;;;;;5092891;28;20059;-39
2022/03/15 05:03:22;;;;;;;15.43;9.90;;;8.80;78.80;;;;;;5074710;28;20036;-41
2022/03/15 05:05:48;;;;;;;16.70;10.30;;;8.80;78.70;;;;;;5092808;28;20081;-40
2022/03/15 05:08:13;;;;;;;15.18;9.90;;;8.80;78.70;;;;;;5093087;28;20484;-40
2022/03/15 05:13:24;;;;;;;18.55;10.05;;;8.70;78.60;;;;;;5093047;28;20035;-39
2022/03/15 05:15:50;;;;;;;14.55;10.15;;;8.70;78.60;;;;;;5093013;28;20028;-41
2022/03/15 05:18:15;;;;;;;15.32;9.60;;;8.70;78.60;;;;;;5074527;28;20081;-41
2022/03/15 05:20:41;;;;;;;14.00;10.23;;;8.70;78.60;;;;;;5092769;28;20540;-40
2022/03/15 05:23:07;;;;;;;15.65;10.70;;;8.70;78.70;;;;;;5092731;28;20477;-41
2022/03/15 05:25:32;;;;;;;16.10;10.25;;;8.70;78.70;;;;;;5092661;28;20099;-40
2022/03/15 05:27:58;;;;;;;15.15;10.10;;;8.70;78.60;;;;;;5092561;28;20055;-41
2022/03/15 05:30:24;;;;;;;15.27;10.38;;;8.70;78.60;;;;;;5092590;28;20075;-40
2022/03/15 05:32:50;;;;;;;16.10;10.65;;;8.70;78.60;;;;;;5092760;28;20038;-39
2022/03/15 05:35:16;;;;;;;16.30;10.40;;;8.70;78.60;;;;;;5092702;28;20082;-40
2022/03/15 05:37:41;;;;;;;13.75;10.00;;;8.70;78.60;;;;;;5092479;28;20047;-39
2022/03/15 05:40:08;;;;;;;18.77;10.55;;;8.70;78.60;;;;;;5095176;28;20028;-40
2022/03/15 05:42:33;;;;;;;14.98;9.98;;;8.70;78.50;;;;;;5096512;28;20055;-41
2022/03/15 05:44:59;;;;;;;16.30;10.07;;;8.70;78.50;;;;;;5096093;28;20024;-40
2022/03/15 05:47:25;;;;;;;16.65;9.45;;;8.70;78.60;;;;;;5096439;28;20472;-41
2022/03/15 05:49:50;;;;;;;15.52;9.52;;;8.60;78.50;;;;;;5095957;28;20024;-39
2022/03/15 05:52:16;;;;;;;12.77;9.48;;;8.60;78.50;;;;;;5096117;28;20050;-40
2022/03/15 05:54:42;;;;;;;13.98;9.43;;;8.60;78.40;;;;;;5095952;28;20043;-41
2022/03/15 05:57:08;;;;;;;19.65;10.05;;;8.70;78.50;;;;;;5095816;28;20047;-40
2022/03/15 05:59:33;;;;;;;16.02;9.52;;;8.70;78.50;;;;;;5096177;28;20031;-40
2022/03/15 06:01:59;;;;;;;15.38;9.27;;;8.70;78.40;;;;;;5095777;28;20027;-40
2022/03/15 06:04:26;;;;;;;15.82;10.20;;;8.70;78.40;;;;;;5095901;28;20464;-41
2022/03/15 06:06:55;;;;;;;14.68;9.50;;;8.70;78.40;;;;;;5096148;28;20042;-42
2022/03/15 06:09:24;;;;;;;13.93;9.50;;;8.70;78.40;;;;;;5096004;28;20460;-41
2022/03/15 06:11:51;;;;;;;15.00;9.27;;;8.80;78.40;;;;;;5095744;28;20477;-41
2022/03/15 06:14:20;;;;;;;17.20;10.38;;;8.80;78.40;;;;;;5096075;28;20026;-40
2022/03/15 06:16:47;;;;;;;13.73;9.50;;;8.80;78.30;;;;;;5095634;28;20024;-42
2022/03/15 06:19:13;;;;;;;18.35;10.60;;;8.80;78.20;;;;;;5095598;28;20196;-41
2022/03/15 06:21:39;;;;;;;15.27;10.60;;;8.80;78.20;;;;;;5077424;28;20541;-41
2022/03/15 06:24:07;;;;;;;16.80;10.38;;;8.80;78.10;;;;;;5095418;28;20073;-40
2022/03/15 06:26:32;;;;;;;16.73;10.40;;;8.80;78.10;;;;;;5095534;28;20112;-41
2022/03/15 06:28:59;;;;;;;16.75;10.10;;;8.80;78.10;;;;;;5095282;28;21907;-42
2022/03/15 06:31:26;;;;;;;14.82;10.35;;;8.80;78.10;;;;;;5095432;28;20081;-40
2022/03/15 06:33:52;;;;;;;14.48;9.50;;;8.80;78.00;;;;;;5095471;28;20406;-41
2022/03/15 06:36:17;;;;;;;18.00;10.75;;;8.90;78.00;;;;;;5077185;28;20119;-41
2022/03/15 06:38:43;;;;;;;14.23;9.55;;;8.90;78.00;;;;;;5095356;28;20427;-40
2022/03/15 06:41:11;;;;;;;15.27;9.57;;;8.90;77.90;;;;;;5095238;28;20091;-40
2022/03/15 06:43:39;;;;;;;16.42;10.13;;;8.90;77.90;;;;;;5095189;28;20020;-41
2022/03/15 06:46:05;;;;;;;14.80;9.65;;;8.90;77.90;;;;;;5095385;28;20074;-41
2022/03/15 06:48:31;;;;;;;16.10;10.13;;;8.90;77.80;;;;;;5077187;28;20020;-40
2022/03/15 06:50:57;;;;;;;15.25;10.40;;;8.90;77.80;;;;;;5095236;28;20027;-40
2022/03/15 06:53:22;;;;;;;14.93;10.05;;;8.90;77.70;;;;;;5095009;28;20020;-41
2022/03/15 06:55:48;;;;;;;15.80;10.18;;;8.90;77.70;;;;;;5094919;28;20044;-41
2022/03/15 06:58:14;;;;;;;14.23;9.18;;;8.90;77.60;;;;;;5095037;28;20027;-39
2022/03/15 07:00:40;;;;;;;15.18;9.55;;;8.90;77.60;;;;;;5094899;28;20396;-39
2022/03/15 07:03:05;;;;;;;17.92;9.43;;;9.00;77.60;;;;;;5094865;28;20027;-40
2022/03/15 07:05:31;;;;;;;14.52;9.50;;;9.00;77.50;;;;;;5094674;28;20024;-40
2022/03/15 07:07:57;;;;;;;14.63;9.13;;;9.00;77.50;;;;;;5094593;28;20107;-39
2022/03/15 07:10:23;;;;;;;15.30;10.10;;;9.00;77.40;;;;;;5094652;28;20028;-41
2022/03/15 07:12:48;;;;;;;13.70;9.18;;;9.00;77.40;;;;;;5076330;28;20024;-39
2022/03/15 07:15:16;;;;;;;16.42;9.60;;;9.00;77.40;;;;;;5094650;28;20091;-41
2022/03/15 07:17:53;;;;;;;15.55;9.25;;;9.00;77.30;;;;;;5094796;28;20364;-43
2022/03/15 07:20:19;;;;;;;13.30;9.48;;;9.00;77.30;;;;;;5076320;28;20032;-40
2022/03/15 07:22:45;;;;;;;14.27;9.73;;;9.10;77.30;;;;;;5094373;28;20028;-39
2022/03/15 07:25:10;;;;;;;14.70;9.30;;;9.10;77.20;;;;;;5094465;28;20028;-41
2022/03/15 07:27:36;;;;;;;12.55;8.73;;;9.10;77.10;;;;;;5094489;28;20365;-40
2022/03/15 07:30:03;;;;;;;15.32;9.30;;;9.10;77.00;;;;;;5094440;28;20024;-40
2022/03/15 07:32:28;;;;;;;14.38;9.20;;;9.20;77.00;;;;;;5094211;28;20016;-40
2022/03/15 07:34:54;;;;;;;13.40;8.98;;;9.20;77.00;;;;;;5094146;28;20026;-39
2022/03/15 07:37:19;;;;;;;10.88;8.32;;;9.20;76.90;;;;;;5094095;28;20031;-40
2022/03/15 07:39:45;;;;;;;15.43;8.93;;;9.20;76.80;;;;;;5094113;28;20020;-38
2022/03/15 07:42:11;;;;;;;13.45;8.70;;;9.30;76.80;;;;;;5093990;28;20495;-39
2022/03/15 07:44:37;;;;;;;12.48;8.27;;;9.30;76.80;;;;;;5094094;28;20024;-40
2022/03/15 07:47:03;;;;;;;11.73;7.80;;;9.30;76.70;;;;;;5075734;28;20059;-40
2022/03/15 07:49:28;;;;;;;15.32;8.45;;;9.40;76.70;;;;;;5093753;28;20032;-40
2022/03/15 07:51:54;;;;;;;12.82;7.85;;;9.40;76.70;;;;;;5094168;28;20032;-41
2022/03/15 07:54:21;;;;;;;10.80;7.75;;;9.40;76.70;;;;;;5094061;28;20024;-40
2022/03/15 07:56:47;;;;;;;13.40;7.85;;;9.40;76.60;;;;;;5093471;28;20044;-39
2022/03/15 08:02:34;;;;;;;11.85;7.95;;;9.50;76.60;;;;;;5093599;28;20057;-40
2022/03/15 08:05:00;;;;;;;10.32;7.60;;;9.50;76.40;;;;;;5093784;28;20107;-41
2022/03/15 08:07:25;;;;;;;10.32;7.15;;;9.50;76.30;;;;;;5093714;28;20024;-40
2022/03/15 08:09:51;;;;;;;14.20;7.70;;;9.60;76.30;;;;;;5093829;28;20027;-41
2022/03/15 08:12:18;;;;;;;11.98;7.55;;;9.60;76.20;;;;;;5093704;28;20016;-40
2022/03/15 08:14:44;;;;;;;10.57;7.15;;;9.60;76.20;;;;;;5093791;28;20071;-41
2022/03/15 08:17:10;;;;;;;12.13;7.70;;;9.60;76.10;;;;;;5093799;28;20087;-41
2022/03/15 08:19:35;;;;;;;10.98;6.93;;;9.70;76.10;;;;;;5093492;28;20027;-40
2022/03/15 08:22:02;;;;;;;15.20;7.03;;;9.70;76.00;;;;;;5093708;28;20376;-42
2022/03/15 08:24:28;;;;;;;11.70;7.55;;;9.80;75.90;;;;;;5093759;28;20058;-39
2022/03/15 08:26:55;;;;;;;10.52;6.85;;;9.80;75.80;;;;;;5093385;28;20016;-44
2022/03/15 08:29:20;;;;;;;11.65;7.25;;;9.80;75.70;;;;;;5093512;28;20106;-40
2022/03/15 08:31:46;;;;;;;11.43;7.60;;;9.80;75.60;;;;;;5093331;28;20051;-41
2022/03/15 08:34:11;;;;;;;11.90;6.90;;;9.90;75.70;;;;;;5075253;28;20012;-41
2022/03/15 08:36:38;;;;;;;10.25;6.93;;;9.90;76.20;;;;;;5075132;28;20012;-41
2022/03/15 08:39:04;;;;;;;10.75;7.15;;;9.90;75.40;;;;;;5093442;28;20387;-41
2022/03/15 08:41:30;;;;;;;11.38;7.00;;;10.00;75.40;;;;;;5093446;28;20490;-41
2022/03/15 08:43:55;;;;;;;11.98;6.50;;;10.00;75.30;;;;;;5093166;28;20024;-41
2022/03/15 08:46:21;;;;;;;10.15;6.72;;;10.10;75.30;;;;;;5093242;28;20472;-41
2022/03/15 08:48:47;;;;;;;11.93;6.70;;;10.10;75.10;;;;;;5093125;28;20035;-43
2022/03/15 08:51:12;;;;;;;8.65;6.03;;;10.10;75.00;;;;;;5075222;28;20048;-41
2022/03/15 08:53:38;;;;;;;9.90;6.35;;;10.20;75.00;;;;;;5093038;28;20115;-41
2022/03/15 08:56:04;;;;;;;10.07;6.57;;;10.20;74.90;;;;;;5092981;28;20036;-42
2022/03/15 08:58:30;;;;;;;11.57;7.38;;;10.20;74.70;;;;;;5093294;28;20106;-41
2022/03/15 09:00:55;;;;;;;8.80;6.38;;;10.30;74.60;;;;;;5093270;28;20020;-42
2022/03/15 09:03:22;;;;;;;9.02;6.20;;;10.30;74.60;;;;;;5092937;28;20059;-41
2022/03/15 09:05:48;;;;;;;9.90;6.75;;;10.30;74.50;;;;;;5092983;28;20020;-40
2022/03/15 09:08:13;;;;;;;10.07;6.88;;;10.40;74.50;;;;;;5093031;28;20368;-41
2022/03/15 09:10:42;;;;;;;10.52;6.82;;;10.40;74.40;;;;;;5092723;28;20024;-40
2022/03/15 09:13:09;;;;;;;11.65;6.70;;;10.40;74.30;;;;;;5092889;28;20023;-41
2022/03/15 09:15:34;;;;;;;10.18;6.47;;;10.50;74.30;;;;;;5096362;28;20105;-40
2022/03/15 09:18:02;;;;;;;11.63;6.88;;;10.50;74.20;;;;;;5096958;28;20047;-41
2022/03/15 09:20:28;;;;;;;11.85;7.07;;;10.60;74.10;;;;;;5097114;28;20028;-40
2022/03/15 09:22:54;;;;;;;8.73;6.72;;;10.70;74.00;;;;;;5097003;28;20052;-41
2022/03/15 09:25:19;;;;;;;11.40;6.20;;;10.70;73.90;;;;;;5096742;28;20024;-41
2022/03/15 09:27:46;;;;;;;11.45;6.45;;;10.80;73.80;;;;;;5096709;28;20027;-42
2022/03/15 09:30:12;;;;;;;9.65;6.68;;;10.80;73.80;;;;;;5096603;28;20019;-42
2022/03/15 09:32:38;;;;;;;8.15;6.05;;;10.80;73.70;;;;;;5096599;28;20128;-38
2022/03/15 09:35:04;;;;;;;8.60;5.90;;;10.90;73.70;;;;;;5096642;28;20016;-40
2022/03/15 09:37:30;;;;;;;10.15;5.82;;;10.90;73.60;;;;;;5096700;28;20025;-43
2022/03/15 09:39:57;;;;;;;7.57;5.88;;;10.90;73.50;;;;;;5096531;28;20028;-40
2022/03/15 09:42:24;;;;;;;9.55;5.95;;;10.90;73.50;;;;;;5096806;28;20024;-42
2022/03/15 09:44:51;;;;;;;8.70;5.40;;;11.00;73.40;;;;;;5096376;28;20106;-41
2022/03/15 09:47:20;;;;;;;10.45;5.65;;;11.00;73.20;;;;;;5096301;28;20024;-41
2022/03/15 09:49:46;;;;;;;8.05;5.55;;;11.00;73.00;;;;;;5096461;28;20077;-40
2022/03/15 09:52:12;;;;;;;9.43;6.53;;;11.00;73.00;;;;;;5096263;28;20020;-41
2022/03/15 09:54:38;;;;;;;7.82;5.82;;;11.10;73.00;;;;;;5096171;28;20042;-40
2022/03/15 09:57:05;;;;;;;11.68;5.97;;;11.10;72.90;;;;;;5096117;28;20052;-41
2022/03/15 09:59:31;;;;;;;7.95;5.70;;;11.10;72.70;;;;;;5078027;28;20439;-42
2022/03/15 10:01:59;;;;;;;9.90;5.82;;;11.10;72.60;;;;;;5096172;28;20024;-42
2022/03/15 10:04:26;;;;;;;10.27;5.75;;;11.20;72.50;;;;;;5096132;28;20028;-40
2022/03/15 10:06:53;;;;;;;7.97;5.10;;;11.20;72.50;;;;;;5095976;28;20391;-41
2022/03/15 10:09:20;;;;;;;9.40;5.65;;;11.30;72.40;;;;;;5095854;28;20480;-40
2022/03/15 10:11:45;;;;;;;10.60;5.90;;;11.40;72.30;;;;;;5095948;28;20058;-40
2022/03/15 10:14:11;;;;;;;11.75;5.50;;;11.40;72.10;;;;;;5095909;28;20028;-41
2022/03/15 10:16:42;;;;;;;7.85;5.25;;;11.40;72.00;;;;;;5095794;28;20016;-42
2022/03/15 10:19:13;;;;;;;7.78;5.55;;;11.40;72.00;;;;;;5095864;28;20028;-42
2022/03/15 10:21:48;;;;;;;11.50;5.97;;;11.50;72.00;;;;;;5095749;28;20553;-40
2022/03/15 10:24:20;;;;;;;8.27;5.50;;;11.50;71.90;;;;;;5095738;28;20032;-38
2022/03/15 10:26:47;;;;;;;7.45;5.25;;;11.50;71.70;;;;;;5095430;28;20099;-41
2022/03/15 10:29:15;;;;;;;10.07;5.25;;;11.50;71.60;;;;;;5095555;28;20441;-40
2022/03/15 10:31:41;;;;;;;11.23;5.40;;;11.60;71.60;;;;;;5095699;28;20471;-41
2022/03/15 10:34:08;;;;;;;8.27;5.03;;;11.60;71.50;;;;;;5095475;28;20012;-40
2022/03/15 10:36:39;;;;;;;7.72;4.85;;;11.60;71.30;;;;;;5095730;28;20435;-40
2022/03/15 10:39:07;;;;;;;8.15;5.18;;;11.70;71.30;;;;;;5095478;28;20051;-40
2022/03/15 10:42:05;;;;;;;7.70;4.70;;;11.70;71.10;;;;;;5095350;28;20544;-40
2022/03/15 10:44:36;;;;;;;8.38;5.10;;;11.70;70.90;;;;;;5082304;28;20033;-40
2022/03/15 10:47:15;;;;;;;7.82;4.85;;;11.80;71.00;;;;;;5095372;28;20024;-41
2022/03/15 10:49:48;;;;;;;9.25;5.40;;;11.90;70.80;;;;;;5095206;28;20499;-40
2022/03/15 10:52:27;;;;;;;8.52;5.13;;;11.90;70.70;;;;;;5077095;28;20021;-39
2022/03/15 10:54:53;;;;;;;8.57;4.70;;;12.00;70.60;;;;;;5094993;28;20029;-40
2022/03/15 10:57:18;;;;;;;8.65;5.30;;;12.00;70.60;;;;;;5095207;28;20032;-41
2022/03/15 10:59:44;;;;;;;8.40;5.20;;;12.10;70.50;;;;;;5095072;28;20561;-41
2022/03/15 11:02:13;;;;;;;12.43;5.80;;;12.10;70.50;;;;;;5095047;28;20086;-41
2022/03/15 11:04:48;;;;;;;10.88;5.45;;;12.10;70.50;;;;;;5095229;28;20028;-40
2022/03/15 11:07:14;;;;;;;12.90;5.50;;;12.10;70.40;;;;;;5094949;28;20077;-42
2022/03/15 11:09:39;;;;;;;8.68;5.20;;;12.10;70.30;;;;;;5095027;28;20557;-40
2022/03/15 11:12:07;;;;;;;9.63;5.40;;;12.10;70.30;;;;;;5076819;28;20051;-40
2022/03/15 11:14:44;;;;;;;8.95;5.38;;;12.10;70.30;;;;;;5094633;28;20027;-40
2022/03/15 11:17:25;;;;;;;8.63;5.28;;;12.20;70.30;;;;;;5094624;28;20019;-40
2022/03/15 11:19:50;;;;;;;8.77;4.80;;;12.20;70.30;;;;;;5094531;28;20418;-40
2022/03/15 11:22:22;;;;;;;10.02;4.72;;;12.20;70.20;;;;;;5094548;28;20028;-42
2022/03/15 11:25:05;;;;;;;10.40;5.70;;;12.20;70.20;;;;;;5094839;28;20392;-41
2022/03/15 11:27:32;;;;;;;11.75;5.32;;;12.30;70.40;;;;;;5094668;28;20024;-40
2022/03/15 11:30:02;;;;;;;9.57;4.97;;;12.30;70.10;;;;;;5094208;28;20435;-41
2022/03/15 11:32:31;;;;;;;9.95;5.35;;;12.40;70.10;;;;;;5094203;28;20070;-41
2022/03/15 11:34:57;;;;;;;7.68;5.00;;;12.40;70.00;;;;;;5094398;28;20028;-41
2022/03/15 11:37:23;;;;;;;8.82;4.60;;;12.40;69.90;;;;;;5093519;28;20381;-40
2022/03/15 11:39:49;;;;;;;11.05;5.65;;;12.50;70.00;;;;;;5076146;28;20031;-41
2022/03/15 11:42:16;;;;;;;8.95;5.38;;;12.50;70.10;;;;;;5094049;28;20422;-41
2022/03/15 11:44:59;;;;;;;8.27;5.50;;;12.60;70.00;;;;;;5094428;28;20044;-40
2022/03/15 11:47:55;;;;;;;10.57;6.38;;;12.60;70.00;;;;;;5093996;28;20104;-41
2022/03/15 11:50:56;;;;;;;9.40;6.57;;;12.60;69.80;;;;;;5076022;28;20047;-41
2022/03/15 11:53:59;;;;;;;11.48;6.72;;;12.60;69.80;;;;;;5055725;28;20107;-41
2022/03/15 11:56:39;;;;;;;11.73;6.85;;;12.60;69.90;;;;;;5075701;28;20527;-41
2022/03/15 11:59:05;;;;;;;10.90;6.72;;;12.70;69.70;;;;;;5093959;28;20095;-40
2022/03/15 12:01:41;;;;;;;13.40;6.68;;;12.70;69.80;;;;;;5094042;28;20097;-39
2022/03/15 12:04:06;;;;;;;13.65;7.07;;;12.70;69.80;;;;;;5093887;28;20380;-39
2022/03/15 12:06:32;;;;;;;10.18;6.85;;;12.70;69.70;;;;;;5093676;28;20016;-40
2022/03/15 12:09:00;;;;;;;11.55;5.80;;;12.80;69.80;;;;;;5093981;28;20383;-41
2022/03/15 12:11:32;;;;;;;10.40;5.25;;;12.80;69.60;;;;;;5093597;28;20024;-38
2022/03/15 12:14:19;;;;;;;7.80;4.43;;;12.70;69.30;;;;;;5093548;28;20062;-40
2022/03/15 12:16:47;;;;;;;9.85;4.80;;;12.70;69.00;;;;;;5093796;28;20024;-40
2022/03/15 12:19:37;;;;;;;9.45;4.18;;;12.80;69.00;;;;;;5093480;28;20492;-41
2022/03/15 12:22:08;;;;;;;7.95;3.97;;;12.80;68.80;;;;;;5093781;28;20472;-41
2022/03/15 12:24:41;;;;;;;9.32;3.85;;;12.90;68.90;;;;;;5093771;28;20020;-41
2022/03/15 12:27:19;;;;;;;5.60;3.50;;;12.90;68.40;;;;;;5093519;28;20032;-41
2022/03/15 12:29:59;;;;;;;9.32;4.00;;;13.00;68.20;;;;;;5093528;28;20466;-40
2022/03/15 12:32:26;;;;;;;7.22;4.47;;;13.00;68.00;;;;;;5075149;28;20027;-41
2022/03/15 12:34:56;;;;;;;8.25;3.55;;;13.00;68.00;;;;;;5093239;28;20016;-42
2022/03/15 12:37:49;;;;;;;8.73;3.97;;;13.00;67.80;;;;;;5093165;28;20066;-39
2022/03/15 12:40:15;;;;;;;7.35;3.65;;;13.00;67.70;;;;;;5089280;28;20047;-40
2022/03/15 12:42:52;;;;;;;8.10;3.47;;;13.00;67.70;;;;;;5093074;28;20024;-40
2022/03/15 12:45:18;;;;;;;6.45;3.78;;;13.00;67.50;;;;;;5093147;28;20043;-41
2022/03/15 12:47:47;;;;;;;6.38;4.13;;;12.90;67.70;;;;;;5092938;28;20024;-41
2022/03/15 12:50:13;;;;;;;7.25;3.97;;;12.80;67.60;;;;;;5075287;28;20055;-41